This site, now in its 15th season, is a labour of love and fun from one of Ottawa's most avid time trialists and number crunchers. It adheres to and is permitted by the laws of Canada, promotes the objectives of every bicycle club whose results are shown, and is donated free of charge by myself for your enjoyment and usage. If you would like results from series you ride in to be shown here, give me (celia@drmath.ca) a shout!


Index Page
ATT OTT WTT AATT CFCTT VVVTT
Help resultformat:
Case-sensitive

OBC Open TT Series - 2008-Jul-10 - 15km (Rockliffe Pkwy) (EvtFactor = 0.9262)

Weather (18:00): Partly Cloudy. Temp.: 21C, Humidity: 53%, Dew Point: 11C, Wind: NW 18 gust 30km/h, Pressure: 101.5kPa, Vis: 24km, Humidex: *.
Weather (19:00): Mainly Sunny. Temp.: 20C, Humidity: 54%, Dew Point: 11C, Wind: NW 17km/h, Pressure: 101.6kPa, Vis: 24km, Humidex: *.
Weather (20:00): Partly Cloudy. Temp.: 19C, Humidity: 57%, Dew Point: 11C, Wind: NNW 18km/h, Pressure: 101.6kPa, Vis: 24km, Humidex: *.

Send photos with description (when/where/what) of yourself on or off of bike to celia@drmath.ca

These results were first posted on the OBC site circa 22:40 on 2008-Jul-10 and are available here for your added pleasure and analysis.

Despite the conditions which were a little cooler, windier and with higher air pressure than ideal, 21 of 54 improved upon their previous year-series best, and 17 of 63 bettered their previous database best! You may click here to see a graph of this years performances for the top improvers who have ridden multiple times this year. Matteo Dal-Cin, in his first year as a Junior and third year of riding time trials, dropped nearly a minute from his previous best - an excellent JUM performance. Note that Mike Dupuis' large improvement was due to the fact that his earlier 15km results were on the tougher ABC course. You may click here to see how the performance ratios relate between for those of us who have ridden both ATT and OTT 15km events this year. Oh - and a special congratulations to Geoffrey Wright for adding a new age standard of 30:32 for the 80-89 year old category!

 
 

BESTS?
 
1 Nash, Michael  OBC 19:08 47.038 1/65 VBM 1/13 0.9588
2 Amos, Ron  OBC/RWR 19:31 46.114 2/65 VBM 2/13 1.0734
3 Rendall, Glen  RWR 19:35 45.957 3/65 VAM 1/10 0.9949
4 Martel, Brad RWR 20:21 44.226 4/65 VBM 3/13 1.0859
5 Munden, David EMD 20:30 43.902 5/65 VAM 2/10 1.0246
6 Dal-Cin, Matteo  EUR 20:51 43.165 6/65 JUM 1/3 1.1222
7 Tsilemos, Jim RWR 20:55 43.028 7/65 VAM 3/10 1.0169
8 Zappe, Erich RWR 21:01 42.823 8/65 VBM 4/13 0.9740
9 Katz, Joel  OBC/RWR 21:03 42.755 9/65 VCM 1/16 0.9601
Sudac, Rick  OBC/RWR 21:03 42.755 9/65 VCM 1/16 0.8924
11 Cataford, Alex OBC 21:25 42.023 11/65 CAM 1/3 0.9631
12 Campbell, Colin  OBC 21:27 41.958 12/65 VBM 5/13 0.9837
13 Radford, Iain OBC 21:28 41.925 13/65 VAM 4/10 0.9118
14 Sidhu, Joël ULT 21:34 41.731 14/65 SEM 1/2 0.9276
15 Damen, Trevor OBC/EUR 21:55 41.065 15/65 JUM 2/3 0.9662
16 Lapointe, Marc EMD 22:03 40.816 16/65 VAM 5/10 1.0554
Morewood, Colin OBC 22:03 40.816 16/65 CAM 2/3 1.0507
18 Cameron, Allen  OBC/RWR 22:05 40.755 18/65 VCM 3/16 0.9423
Durand, Bernard  OBC 22:05 40.755 18/65 VBM 6/13  
20 Morvan, Jacques  OBC 22:08 40.663 20/65 VDM 1/8 0.9381
21 Budgell, Glen  OBC 22:14 40.480 21/65 VCM 4/16 0.9234
22 Gauthier, Antoine EUR 22:18 40.359 22/65 SEM 2/2 0.9956
23 Lennox, Marc OBC 22:23 40.208 23/65 VAM 6/10  
24 Sargent, Larry OBC 22:42 39.648 24/65 VCM 5/16 0.9354
25 Thomas, Trevor CYC 22:43 39.618 25/65 VAM 7/10 0.9502
26 Parkin, Brian --- 22:48 39.474 26/65 VCM 6/16  
27 Thompson, William OBC 22:56 39.244 27/65 VBM 7/13 0.9957
28 Dorego, Jean-Louis OBC 23:04 39.017 28/65 VCM 7/16 1.0043
29 Boulanger, Gaetan  OBC 23:13 38.765 29/65 VDM 2/8 1.0065
30 Moerman, Bram  OBC 23:14 38.737 30/65 VDM 3/8 0.9368
31 Basu, Ben  OBC 23:27 38.380 31/65 VAM 8/10  
32 Armstrong, Brian OBC 23:30 38.298 32/65 VBM 8/13 1.0741
33 Burdett, Avery  OBC 23:34 38.190 33/65 VDM 4/8 0.9459
34 Hind, Terry OBC/EUR 23:40 38.028 34/65 VCM 8/16 1.0538
35 Desjardins, Marcel OBC 23:41 38.001 35/65 VDM 5/8 1.0428
36 Turner, Paul OBC 23:59 37.526 36/65 VCM 9/16 0.9752
37 Gates, Sean OBC 24:09 37.267 37/65 VBM 9/13  
38 Blais, Bob OBC 24:13 37.164 38/65 VCM 10/16 0.9876
39 Coney, Michael OBC 24:16 37.088 39/65 VDM 6/8 0.9554
40 Simard, Martin OBC 24:30 36.735 40/65 VBM 10/13 1.0226
41 Evju, Are OBC 24:31 36.710 41/65 JUM 3/3 0.9919
42 James, Peter OBC 24:33 36.660 42/65 VCM 11/16 1.0081
43 Austen, Ian  OBC 24:37 36.561 43/65 VCM 12/16 0.9229
44 Coney, Ingrid  OBC 24:50 36.242 44/65 VCF 1/2 0.9920
45 Dionne, Suzanne  OBC 24:53 36.169 45/65 VBF 1/5 1.0553
Imbrogno, Giorgio  OBC 24:53 36.169 45/65 VCM 13/16 0.9781
47 Young, Bruce OBC 24:59 36.024 47/65 VCM 14/16  
48 McInnis, Celia  OBC/ABC 25:02 35.952 48/65 VCF 2/2 0.9548
49 Humphreys, Les  OBC/ABC 25:13 35.691 49/65 VDM 7/8 0.9078
50 McCallum, Carrie OBC 25:27 35.363 50/65 VBF 2/5 1.1525
51 Gagné, Marc  OBC 25:36 35.156 51/65 VBM 11/13 0.9388
52 Henry, Mike OBC 25:49 34.861 52/65 VAM 9/10 0.9903
53 Hulk, Doug OBC 25:54 34.749 53/65 VDM 8/8  
Ingham, Alison  OBC 25:54 34.749 53/65 VBF 3/5 0.9923
55 Dupuis, Mike ABC 26:04 34.527 55/65 VCM 15/16  
56 McLaren, Louise  OBC 26:18 34.221 56/65 VBF 4/5 1.0542
57 Ajersch, Mary  OBC 26:42 33.708 57/65 VDF 1/1  
58 Damen, Ryan OBC 26:49 33.561 58/65 CAM 3/3 1.0131
59 Scanlan, Peter OBC 27:13 33.068 59/65 VBM 12/13 1.0166
60 St. John, Ronald OBC 27:41 32.511 60/65 VEM 1/1 0.9573
61 Damen, Ted --- 27:49 32.355 61/65 VBM 13/13  
62 Jay, Sheri OBC 28:40 31.395 62/65 VBF 5/5 1.0787
63 Ramcharan, John OBC 29:51 30.151 63/65 VCM 16/16 1.0442
64 Wright, Geoffrey  OBC 30:32 29.476 64/65 VFM 1/1  
65 LeBrun, Robert OBC 35:47 25.151 65/65 VAM 10/10 0.9613
 
Average Speed of all of the above 65 finishes (975km in 25:54:22):37.636
>>>Average of the Average Speeds for these 65 finishes38.118<<<
 

The number of data records shown above is 65
The server processing of your query took: 1 wallclock secs ( 0.08 usr + 0.03 sys = 0.11 CPU)

Thanks to our Helpers: Neil Farish, Gunter Hauschildt, Florence Laplante-Lamarche, Alex McKnight, Patrick Shaver, Jol Sidhu.

     


Mar 21 (Good Friday)
Apr 24
May 1 May 6 (10km) May 8 May 13 (10km) May 15 May 20 May 20 (10km) May 22 May 27 May 27 (10km) May 29
Jun 1 (40km) Jun 3 Jun 3 Jun 5 Jun 10 Jun 10 Jun 12 Jun 17 Jun 17 Jun 19 Jun 24 Jun 24 Jun 26
Jul 1 (cancelled - ) Jul 2 Jul 3 Jul 6 (40km) Jul 8 Jul 8
  Jul 10  
Jul 15 Jul 15 Jul 17 Jul 22 Jul 22 Jul 24 Jul 27 (40km) Jul 29 Jul 29 Jul 31
Aug 5 Aug 5 Aug 7 Aug 10 (40km) Aug 12 Aug 12 Aug 14 Aug 19 Aug 19 Aug 21 Aug 26 Aug 26 (Invitational) Aug 28
Sep 2 Sep 4 Sep 7 (40km) Sep 9 Sep 11 Sep 16 Sep 21 (40km) Sep 23 Sep 30

OTT Rankings
Best       Best by category
WTT Rankings for OBC Members
5 Best Speeds     5 Best Speeds by category
OBC Member Best Three 15km Rankings
Overall     by category     age-Hcap Female   age-Hcap Male
OBC BAR Ranking
Overall     by category     Rider "Consistency-Graph"
ABC BAR Ranking
Overall     by category     Rider "Consistency-Graph"
Other years
TT Calculator All TT People All TT events
ABC Home VVV Home
CKAP GOLD MEDAL
Other Links

Note: OTT data from 2003 through 2006-Apr-14 and 2007-Apr-06-? and WTT from 2008-? is taken from the official OBC site.

Please send your comments and suggestions to: Celia McInnis
Copyright © 1998-2011 Celia McInnis. All rights reserved. Links are welcomed.